createdAt,value
2022-08-27T00:01:22.832Z,43.70
2022-08-27T00:03:51.048Z,42.47
2022-08-27T00:06:19.726Z,39.20
2022-08-27T00:08:48.076Z,42.30
2022-08-27T00:11:17.692Z,41.72
2022-08-27T00:13:51.600Z,37.60
2022-08-27T00:16:19.278Z,54.92
2022-08-27T00:18:47.933Z,45.88
2022-08-27T00:21:16.534Z,38.85
2022-08-27T00:23:44.198Z,46.45
2022-08-27T00:26:12.092Z,38.90
2022-08-27T00:28:41.496Z,40.38
2022-08-27T00:31:09.456Z,38.33
2022-08-27T00:33:40.134Z,41.63
2022-08-27T00:36:08.428Z,42.00
2022-08-27T00:38:37.370Z,45.22
2022-08-27T00:41:05.933Z,40.40
2022-08-27T00:43:44.122Z,38.72
2022-08-27T00:46:18.932Z,42.05
2022-08-27T00:48:46.673Z,47.58
2022-08-27T00:51:14.418Z,40.03
2022-08-27T00:53:42.109Z,37.70
2022-08-27T00:56:11.800Z,48.25
2022-08-27T00:58:41.764Z,44.10
2022-08-27T01:01:11.565Z,45.42
2022-08-27T01:03:41.074Z,42.58
2022-08-27T01:06:11.636Z,40.67
2022-08-27T01:08:46.758Z,45.45
2022-08-27T01:11:14.440Z,41.60
2022-08-27T01:13:59.043Z,43.97
2022-08-27T01:16:32.417Z,42.65
2022-08-27T01:19:01.808Z,47.50
2022-08-27T01:21:31.779Z,39.42
2022-08-27T01:24:03.559Z,41.80
2022-08-27T01:26:32.959Z,49.05
2022-08-27T01:29:00.860Z,41.38
2022-08-27T01:31:29.222Z,38.13
2022-08-27T01:33:58.985Z,37.20
2022-08-27T01:36:27.161Z,47.88
2022-08-27T01:38:55.070Z,42.35
2022-08-27T01:41:25.424Z,50.00
2022-08-27T01:43:54.506Z,42.08
2022-08-27T01:46:22.849Z,51.92
2022-08-27T01:48:50.559Z,42.95
2022-08-27T01:51:18.251Z,43.95
2022-08-27T01:53:45.916Z,44.28
2022-08-27T01:56:13.679Z,43.95
2022-08-27T01:58:41.431Z,45.95
2022-08-27T02:01:12.308Z,47.60
2022-08-27T02:03:41.113Z,44.38
2022-08-27T02:06:09.692Z,45.58
2022-08-27T02:08:37.663Z,44.25
2022-08-27T02:11:06.013Z,45.40
2022-08-27T02:13:33.664Z,44.70
2022-08-27T02:16:01.483Z,55.03
2022-08-27T02:18:30.503Z,51.03
2022-08-27T02:20:58.315Z,47.95
2022-08-27T02:23:26.099Z,40.35
2022-08-27T02:25:53.887Z,43.10
2022-08-27T02:28:21.765Z,42.78
2022-08-27T02:30:49.366Z,37.15
2022-08-27T02:33:17.010Z,43.13
2022-08-27T02:35:45.965Z,47.25
2022-08-27T02:38:14.460Z,43.00
2022-08-27T02:40:42.098Z,39.33
2022-08-27T02:43:09.958Z,45.25
2022-08-27T02:45:43.615Z,45.50
2022-08-27T02:48:11.669Z,44.53
2022-08-27T02:50:39.463Z,41.08
2022-08-27T02:53:09.692Z,39.85
2022-08-27T02:55:37.796Z,42.53
2022-08-27T02:58:05.429Z,42.88
2022-08-27T03:00:33.044Z,40.60
2022-08-27T03:03:00.670Z,40.45
2022-08-27T03:05:28.585Z,41.10
2022-08-27T03:07:58.517Z,44.95
2022-08-27T03:10:27.530Z,37.78
2022-08-27T03:12:55.169Z,40.90
2022-08-27T03:15:22.837Z,37.40
2022-08-27T03:18:08.310Z,39.33
2022-08-27T03:20:40.688Z,38.33
2022-08-27T03:23:08.431Z,37.00
2022-08-27T03:25:37.612Z,36.42
2022-08-27T03:28:05.348Z,34.70
2022-08-27T03:30:41.216Z,35.78
2022-08-27T03:33:09.256Z,32.35
2022-08-27T03:35:37.009Z,39.40
2022-08-27T03:38:04.723Z,36.10
2022-08-27T03:40:32.441Z,40.78
2022-08-27T03:43:01.437Z,33.35
2022-08-27T03:45:29.007Z,36.97
2022-08-27T03:47:56.675Z,34.05
2022-08-27T03:50:24.371Z,32.15
2022-08-27T03:52:52.070Z,39.10
2022-08-27T03:55:20.663Z,31.67
2022-08-27T03:57:49.648Z,37.00
2022-08-27T04:00:18.717Z,38.67
2022-08-27T04:02:46.343Z,40.90
2022-08-27T04:05:15.195Z,33.53
2022-08-27T04:07:43.345Z,44.75
2022-08-27T04:10:11.960Z,35.72
2022-08-27T04:12:40.325Z,33.90
2022-08-27T04:15:09.149Z,39.03
2022-08-27T04:17:38.268Z,39.83
2022-08-27T04:20:31.718Z,40.08
2022-08-27T04:22:54.844Z,35.75
2022-08-27T04:25:22.412Z,35.67
2022-08-27T04:27:50.013Z,37.13
2022-08-27T04:30:19.310Z,41.10
2022-08-27T04:32:48.530Z,37.97
2022-08-27T04:35:16.412Z,39.13
2022-08-27T04:37:44.093Z,35.25
2022-08-27T04:40:11.857Z,34.00
2022-08-27T04:42:39.564Z,36.67
2022-08-27T04:45:07.590Z,35.30
2022-08-27T04:47:35.445Z,39.35
2022-08-27T04:50:05.815Z,33.53
2022-08-27T04:52:33.573Z,32.20
2022-08-27T04:55:09.129Z,36.58
2022-08-27T04:57:37.949Z,37.17
2022-08-27T05:00:06.997Z,40.78
2022-08-27T05:02:34.571Z,37.75
2022-08-27T05:05:02.314Z,41.90
2022-08-27T05:07:31.323Z,43.58
2022-08-27T05:09:59.011Z,40.53
2022-08-27T05:12:26.747Z,39.03
2022-08-27T05:14:55.549Z,40.88
2022-08-27T05:17:23.076Z,31.77
2022-08-27T05:19:50.835Z,41.45
2022-08-27T05:22:18.604Z,39.38
2022-08-27T05:24:50.225Z,36.55
2022-08-27T05:27:18.103Z,34.92
2022-08-27T05:29:45.690Z,38.25
2022-08-27T05:32:13.423Z,36.45
2022-08-27T05:34:41.091Z,38.88
2022-08-27T05:37:08.871Z,39.17
2022-08-27T05:39:36.504Z,36.30
2022-08-27T05:42:05.739Z,37.92
2022-08-27T05:44:41.665Z,41.92
2022-08-27T05:47:09.994Z,36.63
2022-08-27T05:49:37.679Z,40.83
2022-08-27T05:52:08.775Z,33.90
2022-08-27T05:54:36.651Z,33.15
2022-08-27T05:57:05.921Z,34.17
2022-08-27T05:59:51.042Z,33.53
2022-08-27T06:02:20.403Z,30.02
2022-08-27T06:04:48.708Z,40.00
2022-08-27T06:07:16.378Z,42.22
2022-08-27T06:09:44.202Z,46.25
2022-08-27T06:12:13.382Z,42.60
2022-08-27T06:14:41.345Z,42.60
2022-08-27T06:17:09.091Z,39.00
2022-08-27T06:19:36.721Z,36.20
2022-08-27T06:22:10.514Z,44.92
2022-08-27T06:24:39.997Z,39.15
2022-08-27T06:27:07.971Z,40.47
2022-08-27T06:29:37.056Z,41.20
2022-08-27T06:32:05.391Z,38.97
2022-08-27T06:34:33.103Z,45.05
2022-08-27T06:37:00.692Z,35.45
2022-08-27T06:39:28.423Z,34.70
2022-08-27T06:41:58.782Z,39.97
2022-08-27T06:44:26.575Z,34.78
2022-08-27T06:46:55.660Z,34.03
2022-08-27T06:49:23.892Z,32.85
2022-08-27T06:51:51.622Z,26.58
2022-08-27T06:54:20.022Z,29.63
2022-08-27T06:56:49.149Z,25.67
2022-08-27T06:59:17.768Z,29.50
2022-08-27T07:01:47.040Z,23.23
2022-08-27T07:04:19.397Z,27.52
2022-08-27T07:06:46.952Z,22.88
2022-08-27T07:09:14.765Z,27.88
2022-08-27T07:11:42.886Z,26.83
2022-08-27T07:14:10.839Z,23.48
2022-08-27T07:16:40.208Z,18.50
2022-08-27T07:19:08.872Z,18.83
2022-08-27T07:21:39.759Z,15.30
2022-08-27T07:24:09.056Z,17.65
2022-08-27T07:26:38.179Z,18.08
2022-08-27T07:29:06.307Z,15.68
2022-08-27T07:31:35.723Z,14.82
2022-08-27T07:34:03.923Z,17.00
2022-08-27T07:36:32.023Z,15.27
2022-08-27T07:39:01.988Z,18.27
2022-08-27T07:41:30.598Z,16.65
2022-08-27T07:44:17.355Z,20.13
2022-08-27T07:46:48.249Z,16.10
2022-08-27T07:49:17.193Z,21.52
2022-08-27T07:51:45.120Z,12.32
2022-08-27T07:54:14.315Z,19.23
2022-08-27T07:56:44.274Z,13.45
2022-08-27T07:59:24.508Z,18.08
2022-08-27T08:01:52.545Z,16.48
2022-08-27T08:04:20.831Z,20.55
2022-08-27T08:06:48.446Z,13.50
2022-08-27T08:09:17.628Z,13.65
2022-08-27T08:11:45.240Z,17.42
2022-08-27T08:14:12.936Z,13.98
2022-08-27T08:16:40.928Z,15.15
2022-08-27T08:19:09.103Z,15.13
2022-08-27T08:21:38.137Z,13.15
2022-08-27T08:24:06.302Z,13.82
2022-08-27T08:26:35.811Z,14.93
2022-08-27T08:29:04.855Z,15.10
2022-08-27T08:31:32.752Z,9.35
2022-08-27T08:34:00.835Z,17.83
2022-08-27T08:36:28.541Z,15.82
2022-08-27T08:38:56.360Z,13.50
2022-08-27T08:41:32.604Z,15.00
2022-08-27T08:44:05.830Z,13.30
2022-08-27T08:46:36.735Z,15.15
2022-08-27T08:49:18.792Z,12.98
2022-08-27T08:51:47.111Z,11.32
2022-08-27T08:54:17.101Z,17.88
2022-08-27T08:56:54.943Z,11.10
2022-08-27T08:59:27.186Z,16.58
2022-08-27T09:01:55.128Z,13.55
2022-08-27T09:04:24.741Z,11.05
2022-08-27T09:06:55.513Z,11.40
2022-08-27T09:09:24.830Z,9.75
2022-08-27T09:11:55.295Z,12.93
2022-08-27T09:14:28.078Z,13.77
2022-08-27T09:16:57.574Z,13.90
2022-08-27T09:19:26.824Z,12.32
2022-08-27T09:22:00.543Z,9.70
2022-08-27T09:24:32.635Z,11.75
2022-08-27T09:27:03.360Z,8.98
2022-08-27T09:29:34.048Z,11.15
2022-08-27T09:32:05.834Z,10.32
2022-08-27T09:34:35.366Z,9.57
2022-08-27T09:37:09.501Z,9.85
2022-08-27T09:39:42.559Z,9.07
2022-08-27T09:42:10.380Z,8.52
2022-08-27T09:44:52.884Z,12.23
2022-08-27T09:47:21.139Z,10.45
2022-08-27T09:49:49.275Z,8.23
2022-08-27T09:52:29.815Z,10.43
2022-08-27T09:54:57.991Z,10.35
2022-08-27T09:57:31.176Z,9.98
2022-08-27T10:00:00.451Z,10.40
2022-08-27T10:02:28.539Z,9.00
2022-08-27T10:04:58.624Z,11.07
2022-08-27T10:07:34.460Z,6.72
2022-08-27T10:10:05.270Z,12.75
2022-08-27T10:12:34.970Z,7.00
2022-08-27T10:15:05.353Z,6.20
2022-08-27T10:17:38.445Z,6.28
2022-08-27T10:20:12.293Z,11.10
2022-08-27T10:22:48.385Z,9.52
2022-08-27T10:25:20.394Z,8.77
2022-08-27T10:27:52.474Z,9.68
2022-08-27T10:30:24.368Z,7.75
2022-08-27T10:32:56.691Z,6.53
2022-08-27T10:35:26.131Z,9.52
2022-08-27T10:38:01.589Z,7.80
2022-08-27T10:40:33.160Z,12.55
2022-08-27T10:43:04.934Z,9.02
2022-08-27T10:45:42.550Z,9.93
2022-08-27T10:48:14.276Z,9.07
2022-08-27T10:50:45.325Z,10.40
2022-08-27T10:53:19.417Z,7.38
2022-08-27T10:55:51.299Z,9.25
2022-08-27T10:58:27.520Z,9.73
2022-08-27T11:00:59.609Z,8.27
2022-08-27T11:03:32.265Z,7.05
2022-08-27T11:06:03.742Z,8.15
2022-08-27T11:08:36.200Z,7.90
2022-08-27T11:11:34.994Z,6.88
2022-08-27T11:14:01.072Z,6.28
2022-08-27T11:16:40.352Z,4.65
2022-08-27T11:19:15.923Z,6.50
2022-08-27T11:21:46.026Z,8.38
2022-08-27T11:24:20.491Z,6.88
2022-08-27T11:26:50.504Z,3.90
2022-08-27T11:29:20.433Z,3.75
2022-08-27T11:31:53.890Z,3.45
2022-08-27T11:34:25.622Z,3.65
2022-08-27T11:37:02.583Z,6.28
2022-08-27T11:39:36.601Z,5.13
2022-08-27T11:42:08.155Z,3.97
2022-08-27T11:44:41.215Z,5.88
2022-08-27T11:47:14.970Z,4.70
2022-08-27T11:49:44.935Z,3.88
2022-08-27T11:52:13.976Z,4.28
2022-08-27T11:54:46.404Z,5.53
2022-08-27T11:57:17.817Z,3.92
2022-08-27T11:59:45.476Z,5.93
2022-08-27T12:02:21.592Z,6.43
2022-08-27T12:04:50.863Z,4.60
2022-08-27T12:07:37.200Z,4.80
2022-08-27T12:10:17.105Z,3.70
2022-08-27T12:12:49.281Z,4.30
2022-08-27T12:15:22.175Z,4.07
2022-08-27T12:18:01.222Z,4.10
2022-08-27T12:20:35.169Z,4.90
2022-08-27T12:23:26.612Z,4.97
2022-08-27T12:25:58.392Z,5.82
2022-08-27T12:28:27.229Z,5.20
2022-08-27T12:30:55.637Z,8.30
2022-08-27T12:33:28.997Z,4.78
2022-08-27T12:35:58.643Z,7.45
2022-08-27T12:38:34.965Z,3.85
2022-08-27T12:41:08.736Z,7.53
2022-08-27T12:43:38.555Z,6.35
2022-08-27T12:46:07.981Z,4.70
2022-08-27T12:48:39.301Z,3.70
2022-08-27T12:51:08.988Z,4.88
2022-08-27T12:53:42.411Z,3.67
2022-08-27T12:56:20.156Z,6.97
2022-08-27T12:58:51.426Z,3.22
2022-08-27T13:01:30.091Z,4.45
2022-08-27T13:04:00.973Z,5.50
2022-08-27T13:06:30.078Z,3.28
2022-08-27T13:08:59.184Z,4.45
2022-08-27T13:11:27.937Z,3.95
2022-08-27T13:14:05.416Z,5.32
2022-08-27T13:16:35.979Z,5.18
2022-08-27T13:19:08.176Z,3.30
2022-08-27T13:21:35.904Z,4.05
2022-08-27T13:24:05.056Z,2.75
2022-08-27T13:26:37.008Z,3.45
2022-08-27T13:29:06.041Z,3.15
2022-08-27T13:31:34.241Z,2.42
2022-08-27T13:34:04.198Z,2.63
2022-08-27T13:36:36.733Z,4.00
2022-08-27T13:39:05.667Z,3.95
2022-08-27T13:41:34.371Z,4.18
2022-08-27T13:44:07.813Z,4.72
2022-08-27T13:46:42.450Z,2.88
2022-08-27T13:49:15.605Z,3.13
2022-08-27T13:51:45.543Z,3.47
2022-08-27T13:54:15.994Z,2.20
2022-08-27T13:56:57.733Z,4.00
2022-08-27T13:59:26.524Z,3.45
2022-08-27T14:01:58.503Z,2.63
2022-08-27T14:04:27.964Z,6.15
2022-08-27T14:06:57.252Z,2.72
2022-08-27T14:09:26.582Z,2.63
2022-08-27T14:12:01.868Z,3.83
2022-08-27T14:14:30.411Z,3.53
2022-08-27T14:16:59.238Z,2.63
2022-08-27T14:19:28.306Z,3.40
2022-08-27T14:22:02.563Z,4.13
2022-08-27T14:24:30.352Z,2.75
2022-08-27T14:27:10.066Z,3.15
2022-08-27T14:29:37.982Z,4.03
2022-08-27T14:32:06.503Z,3.03
2022-08-27T14:34:34.486Z,2.75
2022-08-27T14:37:03.933Z,2.50
2022-08-27T14:39:32.421Z,3.38
2022-08-27T14:42:00.315Z,2.42
2022-08-27T14:44:27.987Z,2.75
2022-08-27T14:46:57.281Z,5.18
2022-08-27T14:49:27.606Z,3.38
2022-08-27T14:51:55.255Z,4.07
2022-08-27T14:54:24.215Z,4.43
2022-08-27T14:56:58.867Z,2.58
2022-08-27T14:59:27.124Z,2.90
2022-08-27T15:01:56.755Z,3.50
2022-08-27T15:04:25.077Z,3.20
2022-08-27T15:06:54.298Z,2.20
2022-08-27T15:09:21.927Z,1.95
2022-08-27T15:11:51.281Z,2.92
2022-08-27T15:14:22.184Z,3.40
2022-08-27T15:16:49.987Z,4.20
2022-08-27T15:19:17.584Z,2.67
2022-08-27T15:21:45.826Z,3.67
2022-08-27T15:24:16.272Z,5.22
2022-08-27T15:26:43.907Z,6.38
2022-08-27T15:29:13.154Z,7.60
2022-08-27T15:31:41.307Z,3.00
2022-08-27T15:34:09.242Z,3.90
2022-08-27T15:36:37.030Z,3.85
2022-08-27T15:39:05.208Z,3.88
2022-08-27T15:41:34.215Z,2.40
2022-08-27T15:44:06.451Z,5.35
2022-08-27T15:46:35.609Z,4.55
2022-08-27T15:49:07.717Z,4.40
2022-08-27T15:51:35.961Z,5.22
2022-08-27T15:54:03.704Z,5.00
2022-08-27T15:56:34.421Z,4.57
2022-08-27T15:59:02.430Z,4.38
2022-08-27T16:01:30.992Z,2.55
2022-08-27T16:04:00.343Z,2.50
2022-08-27T16:06:27.959Z,5.15
2022-08-27T16:08:55.578Z,2.70
2022-08-27T16:11:23.512Z,2.95
2022-08-27T16:13:51.548Z,5.80
2022-08-27T16:16:22.625Z,5.90
2022-08-27T16:18:50.283Z,3.38
2022-08-27T16:21:19.248Z,4.72
2022-08-27T16:23:46.980Z,2.88
2022-08-27T16:26:14.801Z,2.75
2022-08-27T16:28:42.659Z,3.20
2022-08-27T16:31:13.080Z,3.50
2022-08-27T16:33:41.578Z,4.57
2022-08-27T16:36:09.577Z,3.83
2022-08-27T16:38:38.868Z,3.47
2022-08-27T16:41:06.982Z,2.83
2022-08-27T16:43:34.615Z,3.22
2022-08-27T16:46:02.785Z,5.25
2022-08-27T16:48:48.758Z,4.10
2022-08-27T16:51:26.775Z,4.78
2022-08-27T16:53:56.195Z,6.68
2022-08-27T16:56:28.404Z,4.32
2022-08-27T16:58:56.506Z,3.53
2022-08-27T17:01:24.466Z,5.47
2022-08-27T17:04:07.994Z,8.23
2022-08-27T17:06:39.080Z,4.47
2022-08-27T17:09:09.777Z,5.43
2022-08-27T17:11:40.387Z,5.65
2022-08-27T17:14:10.558Z,3.83
2022-08-27T17:16:38.739Z,4.75
2022-08-27T17:19:06.681Z,3.80
2022-08-27T17:21:36.970Z,6.93
2022-08-27T17:24:12.622Z,4.82
2022-08-27T17:26:42.068Z,2.58
2022-08-27T17:29:09.663Z,6.78
2022-08-27T17:31:38.424Z,3.30
2022-08-27T17:34:07.610Z,4.20
2022-08-27T17:36:35.334Z,5.80
2022-08-27T17:39:03.586Z,4.55
2022-08-27T17:41:34.061Z,6.70
2022-08-27T17:44:04.811Z,3.45
2022-08-27T17:46:32.645Z,4.43
2022-08-27T17:49:00.606Z,6.63
2022-08-27T17:51:28.532Z,5.63
2022-08-27T17:54:00.910Z,6.57
2022-08-27T17:56:29.275Z,5.43
2022-08-27T17:58:57.172Z,4.20
2022-08-27T18:01:28.495Z,7.70
2022-08-27T18:03:56.723Z,4.95
2022-08-27T18:06:24.582Z,8.40
2022-08-27T18:08:52.211Z,4.13
2022-08-27T18:11:20.037Z,8.05
2022-08-27T18:13:52.305Z,3.67
2022-08-27T18:16:20.463Z,5.43
2022-08-27T18:18:49.432Z,11.65
2022-08-27T18:21:24.917Z,4.97
2022-08-27T18:23:53.589Z,5.03
2022-08-27T18:26:22.499Z,5.78
2022-08-27T18:28:50.379Z,7.03
2022-08-27T18:31:18.745Z,4.82
2022-08-27T18:33:46.540Z,3.92
2022-08-27T18:36:16.143Z,4.82
2022-08-27T18:38:46.249Z,5.85
2022-08-27T18:41:14.372Z,6.78
2022-08-27T18:43:42.446Z,4.13
2022-08-27T18:46:10.153Z,4.88
2022-08-27T18:48:37.807Z,5.28
2022-08-27T18:51:06.788Z,6.00
2022-08-27T18:53:36.879Z,5.38
2022-08-27T18:56:05.139Z,9.10
2022-08-27T18:58:32.877Z,4.90
2022-08-27T19:01:02.656Z,5.70
2022-08-27T19:03:31.494Z,5.07
2022-08-27T19:06:00.684Z,4.32
2022-08-27T19:08:28.914Z,6.88
2022-08-27T19:10:58.209Z,5.32
2022-08-27T19:13:25.947Z,8.85
2022-08-27T19:15:55.600Z,6.72
2022-08-27T19:18:24.829Z,6.72
2022-08-27T19:20:52.889Z,4.72
2022-08-27T19:23:22.300Z,7.68
2022-08-27T19:25:50.364Z,8.77
2022-08-27T19:28:20.652Z,7.22
2022-08-27T19:30:48.259Z,7.32
2022-08-27T19:33:15.903Z,5.72
2022-08-27T19:35:43.745Z,8.65
2022-08-27T19:38:12.252Z,8.77
2022-08-27T19:40:40.292Z,7.63
2022-08-27T19:43:07.988Z,11.02
2022-08-27T19:45:40.448Z,6.78
2022-08-27T19:48:08.695Z,6.00
2022-08-27T19:50:36.298Z,12.35
2022-08-27T19:53:03.926Z,9.65
2022-08-27T19:55:31.811Z,8.35
2022-08-27T19:57:59.540Z,7.22
2022-08-27T20:00:28.063Z,10.10
2022-08-27T20:02:57.224Z,15.77
2022-08-27T20:05:25.102Z,12.65
2022-08-27T20:07:53.615Z,9.73
2022-08-27T20:10:22.641Z,8.93
2022-08-27T20:12:54.141Z,9.32
2022-08-27T20:15:22.842Z,9.88
2022-08-27T20:17:51.923Z,9.85
2022-08-27T20:20:21.930Z,10.07
2022-08-27T20:22:50.031Z,11.65
2022-08-27T20:25:17.797Z,9.75
2022-08-27T20:27:46.132Z,8.15
2022-08-27T20:30:14.553Z,11.13
2022-08-27T20:32:42.325Z,6.93
2022-08-27T20:35:10.796Z,8.38
2022-08-27T20:37:42.279Z,13.27
2022-08-27T20:40:11.871Z,11.30
2022-08-27T20:42:40.189Z,6.50
2022-08-27T20:45:11.867Z,11.38
2022-08-27T20:47:39.963Z,10.90
2022-08-27T20:50:09.696Z,8.13
2022-08-27T20:52:41.460Z,7.55
2022-08-27T20:55:09.813Z,9.93
2022-08-27T20:57:37.365Z,9.85
2022-08-27T21:00:20.348Z,11.90
2022-08-27T21:02:47.981Z,6.15
2022-08-27T21:05:18.134Z,11.02
2022-08-27T21:07:48.772Z,10.68
2022-08-27T21:10:16.873Z,8.43
2022-08-27T21:12:44.870Z,8.52
2022-08-27T21:15:13.344Z,8.77
2022-08-27T21:17:41.295Z,5.78
2022-08-27T21:20:10.847Z,9.02
2022-08-27T21:22:38.514Z,8.05
2022-08-27T21:25:08.667Z,12.15
2022-08-27T21:27:36.851Z,9.50
2022-08-27T21:30:05.873Z,7.95
2022-08-27T21:32:33.959Z,9.73
2022-08-27T21:35:01.737Z,9.10
2022-08-27T21:37:29.382Z,11.48
2022-08-27T21:39:57.016Z,8.07
2022-08-27T21:42:26.053Z,12.63
2022-08-27T21:44:53.683Z,10.20
2022-08-27T21:47:21.333Z,9.15
2022-08-27T21:49:48.983Z,10.30
2022-08-27T21:52:16.675Z,9.88
2022-08-27T21:54:44.434Z,6.43
2022-08-27T21:57:14.776Z,10.93
2022-08-27T21:59:44.714Z,11.30
2022-08-27T22:02:35.898Z,8.52
2022-08-27T22:05:00.526Z,7.38
2022-08-27T22:07:28.346Z,9.95
2022-08-27T22:09:56.129Z,9.77
2022-08-27T22:12:24.393Z,12.07
2022-08-27T22:14:53.395Z,8.63
2022-08-27T22:17:20.984Z,13.90
2022-08-27T22:19:48.619Z,8.57
2022-08-27T22:22:16.536Z,9.75
2022-08-27T22:24:44.172Z,12.25
2022-08-27T22:27:11.775Z,10.43
2022-08-27T22:29:39.507Z,11.85
2022-08-27T22:32:08.643Z,7.63
2022-08-27T22:34:36.724Z,11.02
2022-08-27T22:37:04.611Z,12.60
2022-08-27T22:39:32.674Z,10.68
2022-08-27T22:42:00.563Z,13.50
2022-08-27T22:44:29.209Z,10.05
2022-08-27T22:46:57.186Z,8.40
2022-08-27T22:49:26.220Z,8.80
2022-08-27T22:51:53.907Z,12.13
2022-08-27T22:54:21.621Z,10.05
2022-08-27T22:56:49.560Z,10.07
2022-08-27T22:59:17.181Z,8.15
2022-08-27T23:01:44.816Z,7.65
2022-08-27T23:04:12.519Z,15.60
2022-08-27T23:06:41.779Z,12.00
2022-08-27T23:09:09.365Z,11.95
2022-08-27T23:11:37.249Z,13.05
2022-08-27T23:14:04.950Z,11.98
2022-08-27T23:16:32.606Z,10.70
2022-08-27T23:19:00.299Z,11.88
2022-08-27T23:21:28.357Z,9.02
2022-08-27T23:23:57.357Z,9.65
2022-08-27T23:26:42.515Z,14.15
2022-08-27T23:29:11.207Z,12.30
2022-08-27T23:31:38.888Z,7.35
2022-08-27T23:34:06.631Z,6.63
2022-08-27T23:36:34.611Z,10.75
2022-08-27T23:39:03.703Z,7.30
2022-08-27T23:41:31.288Z,9.20
2022-08-27T23:43:59.168Z,8.40
2022-08-27T23:46:26.883Z,13.00
2022-08-27T23:48:54.688Z,6.57
2022-08-27T23:51:22.680Z,11.75
2022-08-27T23:53:50.529Z,8.43
2022-08-27T23:56:19.659Z,8.88
2022-08-27T23:58:48.379Z,13.38
